Scf Mariner — WDJ4074 — position and weather

sailwx.info

Track history (hours):
 
Tides and Currents Weather Stations Pressure Air Temp Water Temp Dewpoint Dewpoint Depression Visibility Wind Speed Wind Dir Waves Ship Positions

Scf Mariner

Owner: SCF Waxler Marine LLC, St Rose, LA. More information available from US FCC via Universal Licensing System and Coast Guard Vessel Documentation Center.

Last reported at 2017-Oct-10 06:56 UTC. Time now 2017-Oct-22 06:10 UTC.
Position N 32°46' W 091°09'.
Warning: this ship's position is 11 days out of date.

Length 48 m.

Type: Towing. MMSI: 367774150.

Date/timePositionNaut miles runAvg speedWind from/ knotsBaromVisibWave heightAir tempDewpointWater temp
2017-Oct-10 06:56N 32°46' W 091°09'7 0.8
2017-Oct-09 22:59N 32°40' W 091°07'2 3.9
2017-Oct-09 22:30N 32°39' W 091°09'2 4.0
2017-Oct-09 22:00N 32°38' W 091°09'2 3.8
2017-Oct-09 21:30N 32°36' W 091°08'1 2.3
2017-Oct-09 21:00N 32°35' W 091°07'2 4.6
2017-Oct-09 20:30N 32°33' W 091°06'1 3.0
2017-Oct-09 20:00N 32°32' W 091°06'0 0.2
2017-Oct-09 19:29N 32°32' W 091°06'0 0.3
2017-Oct-09 19:00N 32°32' W 091°06'2 3.7
2017-Oct-09 18:30N 32°30' W 091°07'3 5.2
2017-Oct-09 18:00N 32°28' W 091°06'3 5.2
2017-Oct-09 17:30N 32°26' W 091°03'2 4.9
2017-Oct-09 17:00N 32°26' W 091°01'2 3.6
2017-Oct-09 16:30N 32°24' W 090°59'2 4.8
2017-Oct-09 16:00N 32°22' W 091°00'3 5.3
2017-Oct-09 15:30N 32°21' W 090°57'2 4.6
2017-Oct-09 15:00N 32°20' W 090°54'2 4.8
2017-Oct-09 14:30N 32°18' W 090°55'0 0.2
2017-Oct-09 14:00N 32°18' W 090°55'0 0.0
2017-Oct-09 13:30N 32°18' W 090°55'0 0.0
2017-Oct-09 13:00N 32°18' W 090°55'0 0.1
2017-Oct-09 12:30N 32°18' W 090°55'0 0.1
2017-Oct-09 12:00N 32°18' W 090°55'2 4.0
2017-Oct-09 11:31N 32°17' W 090°57'0 0.1
2017-Oct-09 11:00N 32°17' W 090°57'2 3.3
2017-Oct-09 10:30N 32°16' W 090°58'2 4.3
2017-Oct-09 10:00N 32°14' W 090°59'3 5.1
2017-Oct-09 09:30N 32°11' W 090°60'2 4.5
2017-Oct-09 09:00N 32°09' W 091°00'2 4.3
2017-Oct-09 08:30N 32°07' W 091°02'2 2.3
2017-Oct-09 07:42N 32°08' W 091°04'1 4.6
2017-Oct-09 07:24N 32°08' W 091°05'1 3.8
2017-Oct-09 07:00N 32°07' W 091°07'4 4.7
2017-Oct-09 06:14N 32°04' W 091°04'2 4.5
2017-Oct-09 05:44N 32°02' W 091°04'1 2.8
2017-Oct-09 05:30N 32°02' W 091°04'0 0.2
2017-Oct-09 05:00N 32°02' W 091°04'0 0.0
2017-Oct-09 04:30N 32°02' W 091°04'0 0.0
2017-Oct-09 04:00N 32°02' W 091°04'0 0.0
2017-Oct-09 03:30N 32°02' W 091°04'0 0.0
2017-Oct-09 03:00N 32°02' W 091°04'1 1.7
2017-Oct-09 02:30N 32°01' W 091°05'2 5.0
2017-Oct-09 02:00N 31°59' W 091°07'3 5.0
2017-Oct-09 01:19N 31°59' W 091°11'2 4.8
2017-Oct-09 00:54N 31°57' W 091°11'  
2017-Oct-01 03:15N 31°57' W 091°12'2 6.8
2017-Oct-01 02:57N 31°59' W 091°11'  
Track history (hours):
 
Tides and Currents Weather Stations Pressure Air Temp Water Temp Dewpoint Dewpoint Depression Visibility Wind Speed Wind Dir Waves Ship Positions

Scf Mariner

Owner: SCF Waxler Marine LLC, St Rose, LA. More information available from US FCC via Universal Licensing System and Coast Guard Vessel Documentation Center.

Last reported at 2017-Oct-10 06:56 UTC. Time now 2017-Oct-22 06:10 UTC.
Position N 32°46' W 091°09'.
Warning: this ship's position is 11 days out of date.

Length 48 m.

Type: Towing. MMSI: 367774150.

Date/timePositionNaut miles runAvg speedWind from/ knotsBaromVisibWave heightAir tempDewpointWater temp
2017-Oct-10 06:56N 32°46' W 091°09'7 0.8
2017-Oct-09 22:59N 32°40' W 091°07'2 3.9
2017-Oct-09 22:30N 32°39' W 091°09'2 4.0
2017-Oct-09 22:00N 32°38' W 091°09'2 3.8
2017-Oct-09 21:30N 32°36' W 091°08'1 2.3
2017-Oct-09 21:00N 32°35' W 091°07'2 4.6
2017-Oct-09 20:30N 32°33' W 091°06'1 3.0
2017-Oct-09 20:00N 32°32' W 091°06'0 0.2
2017-Oct-09 19:29N 32°32' W 091°06'0 0.3
2017-Oct-09 19:00N 32°32' W 091°06'2 3.7
2017-Oct-09 18:30N 32°30' W 091°07'3 5.2
2017-Oct-09 18:00N 32°28' W 091°06'3 5.2
2017-Oct-09 17:30N 32°26' W 091°03'2 4.9
2017-Oct-09 17:00N 32°26' W 091°01'2 3.6
2017-Oct-09 16:30N 32°24' W 090°59'2 4.8
2017-Oct-09 16:00N 32°22' W 091°00'3 5.3
2017-Oct-09 15:30N 32°21' W 090°57'2 4.6
2017-Oct-09 15:00N 32°20' W 090°54'2 4.8
2017-Oct-09 14:30N 32°18' W 090°55'0 0.2
2017-Oct-09 14:00N 32°18' W 090°55'0 0.0
2017-Oct-09 13:30N 32°18' W 090°55'0 0.0
2017-Oct-09 13:00N 32°18' W 090°55'0 0.1
2017-Oct-09 12:30N 32°18' W 090°55'0 0.1
2017-Oct-09 12:00N 32°18' W 090°55'2 4.0
2017-Oct-09 11:31N 32°17' W 090°57'0 0.1
2017-Oct-09 11:00N 32°17' W 090°57'2 3.3
2017-Oct-09 10:30N 32°16' W 090°58'2 4.3
2017-Oct-09 10:00N 32°14' W 090°59'3 5.1
2017-Oct-09 09:30N 32°11' W 090°60'2 4.5
2017-Oct-09 09:00N 32°09' W 091°00'2 4.3
2017-Oct-09 08:30N 32°07' W 091°02'2 2.3
2017-Oct-09 07:42N 32°08' W 091°04'1 4.6
2017-Oct-09 07:24N 32°08' W 091°05'1 3.8
2017-Oct-09 07:00N 32°07' W 091°07'4 4.7
2017-Oct-09 06:14N 32°04' W 091°04'2 4.5
2017-Oct-09 05:44N 32°02' W 091°04'1 2.8
2017-Oct-09 05:30N 32°02' W 091°04'0 0.2
2017-Oct-09 05:00N 32°02' W 091°04'0 0.0
2017-Oct-09 04:30N 32°02' W 091°04'0 0.0
2017-Oct-09 04:00N 32°02' W 091°04'0 0.0
2017-Oct-09 03:30N 32°02' W 091°04'0 0.0
2017-Oct-09 03:00N 32°02' W 091°04'1 1.7
2017-Oct-09 02:30N 32°01' W 091°05'2 5.0
2017-Oct-09 02:00N 31°59' W 091°07'3 5.0
2017-Oct-09 01:19N 31°59' W 091°11'2 4.8
2017-Oct-09 00:54N 31°57' W 091°11'  
2017-Oct-01 03:15N 31°57' W 091°12'2 6.8
2017-Oct-01 02:57N 31°59' W 091°11'  

Dump ship's entire track history